Williams Lake Airport
CYWL : rendu visible

Aérodrome :











RETROUVEZ-NOUS SUR...

 
LOGIN :

S'inscrire | Disclaimer

   EN    FR    IT 

 









Légende :    VFR   VFR Marginal   IFR   IFR Intensif   IFR Très Intensif
Visi : 
Plafond : 
>= 8 km
>= 3000ft
5 à 8 km
1000 à 3000 ft
1500m à 5 km
500 à 1000 ft
800 à 1500m
200 à 500 ft
< 800m
< 200 ft
Symboles :   Orages  Brouillard  Fortes neiges  Fortes précipitations  Vent > 20 kt






- Altitude de l'aérodrome : 3085 ft
- Code IATA : YWL


CYWL - Williams Lake

DERNIER METAR :
  • 171200Z 13013G18KT 15SM BKN080 04/02 A2976 RMK AC6 SLP108

METARs EXPIRÉS :
  • 171134Z 12013KT 15SM BKN080 04/02 A2976 RMK AC6 SLP106
  • 171100Z 12012G18KT 15SM -RA BKN080 04/02 A2976 RMK AC7 SLP106
  • 171000Z 12014G20KT 15SM OVC080 04/02 A2975 RMK AC8 SLP103

TAF TAF CYWL
Valide du 17 à 07h jusqu'au 17 à 19h UTC


170638Z 1707/1719 12015G25KT P6SM FEW015 SCT140
TEMPO 1707/1719 FEW008 SCT015 BKN080
PROB30 1709/1715 2SM BR BKN008 RMK NXT FCST BY 171300Z



MET'MAP, la Météo Aéronautique d'un coup d'oeil ! - Copyright ORBIFLY Décembre 2007 - Disclaimer

ORBIFLY MET'MAP TEAM :

Programmation & Développement : Alexandra Zaïnal
Conception & Développement : Baudouin d'Aumeries
Co-Programmation & Développement : Marc-Olivier Méhu
Soutien technique & logistique : Manuel Goepfert

Contact : metmap@orbifly.com




SOURCES & CREDITS :

   NOAA       Earth
Advisory